createdAt,value
2018-09-04T05:25:54.516Z,26.93
2018-09-04T05:28:22.939Z,20.93
2018-09-04T05:30:51.770Z,34.03
2018-09-04T05:33:51.446Z,33.67
2018-09-04T05:36:20.333Z,34.93
2018-09-04T05:38:50.189Z,37.60
2018-09-04T05:41:19.127Z,21.17
2018-09-04T05:43:55.546Z,23.27
2018-09-04T05:46:33.183Z,22.87
2018-09-04T05:49:02.379Z,36.00
2018-09-04T05:51:31.088Z,25.63
2018-09-04T05:54:00.439Z,31.27
2018-09-04T05:56:29.188Z,28.83
2018-09-04T05:58:58.224Z,29.43
2018-09-04T06:01:27.934Z,23.63
2018-09-04T06:03:56.694Z,37.77
2018-09-04T06:06:26.900Z,30.57
2018-09-04T06:08:55.622Z,33.97
2018-09-04T06:11:26.151Z,34.20
2018-09-04T06:13:54.957Z,20.43
2018-09-04T06:16:24.396Z,44.73
2018-09-04T06:18:53.265Z,43.60
2018-09-04T06:21:21.979Z,23.80
2018-09-04T06:23:50.869Z,21.70
2018-09-04T06:26:19.571Z,20.50
2018-09-04T06:28:48.330Z,26.97
2018-09-04T06:31:17.859Z,27.23
2018-09-04T06:33:47.655Z,17.60
2018-09-04T06:36:16.810Z,29.93
2018-09-04T06:38:46.241Z,36.00
2018-09-04T06:41:15.519Z,35.97
2018-09-04T06:43:44.333Z,30.17
2018-09-04T06:46:13.140Z,40.33
2018-09-04T06:48:42.155Z,47.07
2018-09-04T06:51:10.947Z,32.30
2018-09-04T06:53:39.691Z,22.00
2018-09-04T06:56:08.441Z,24.27
2018-09-04T06:58:37.935Z,30.27
2018-09-04T07:01:07.477Z,22.53
2018-09-04T07:03:37.827Z,40.90
2018-09-04T07:06:07.213Z,42.53
2018-09-04T07:08:37.203Z,51.77
2018-09-04T07:11:06.560Z,19.13
2018-09-04T07:13:35.291Z,44.43
2018-09-04T07:16:04.218Z,53.63
2018-09-04T07:18:33.330Z,55.53
2018-09-04T07:21:02.938Z,54.23
2018-09-04T07:23:32.808Z,60.97
2018-09-04T07:26:02.515Z,41.87
2018-09-04T07:28:31.253Z,38.90
2018-09-04T07:31:00.111Z,44.50
2018-09-04T07:33:28.822Z,62.23
2018-09-04T07:35:58.256Z,41.00
2018-09-04T07:38:27.635Z,53.30
2018-09-04T07:40:56.813Z,37.30
2018-09-04T07:43:25.550Z,41.37
2018-09-04T07:45:54.960Z,42.87
2018-09-04T07:48:24.693Z,46.93
2018-09-04T07:50:53.418Z,25.53
2018-09-04T07:53:22.398Z,22.90
2018-09-04T07:55:51.911Z,27.27
2018-09-04T07:58:21.031Z,29.40
2018-09-04T08:00:50.588Z,24.00
2018-09-04T08:03:20.143Z,29.63
2018-09-04T08:05:48.899Z,28.83
2018-09-04T08:08:18.010Z,27.33
2018-09-04T08:10:47.279Z,29.47
2018-09-04T08:13:15.992Z,29.57
2018-09-04T08:15:45.462Z,27.90
2018-09-04T08:18:14.188Z,27.50
2018-09-04T08:20:43.177Z,30.03
2018-09-04T08:23:12.320Z,24.73
2018-09-04T08:25:41.713Z,28.33
2018-09-04T08:28:10.747Z,25.47
2018-09-04T08:30:40.400Z,24.80
2018-09-04T08:33:09.604Z,22.23
2018-09-04T08:35:39.208Z,22.53
2018-09-04T08:38:08.720Z,25.63
2018-09-04T08:40:37.875Z,19.97
2018-09-04T08:43:07.504Z,23.93
2018-09-04T08:45:36.705Z,21.13
2018-09-04T08:48:09.684Z,25.43
2018-09-04T08:50:38.850Z,22.82
2018-09-04T08:53:08.130Z,21.63
2018-09-04T08:55:37.343Z,21.80
2018-09-04T08:58:06.477Z,23.60
2018-09-04T09:00:35.579Z,25.20
2018-09-04T09:03:04.876Z,32.13
2018-09-04T09:05:33.727Z,47.13
2018-09-04T09:08:03.616Z,24.97
2018-09-04T09:10:32.724Z,41.03
2018-09-04T09:13:01.793Z,41.60
2018-09-04T09:15:31.047Z,32.80
2018-09-04T09:18:00.632Z,28.03
2018-09-04T09:20:30.227Z,31.17
2018-09-04T09:22:59.180Z,21.00
2018-09-04T09:25:28.034Z,20.93
2018-09-04T09:27:57.535Z,21.23
2018-09-04T09:30:26.771Z,22.27
2018-09-04T09:32:55.504Z,28.13
2018-09-04T09:35:24.966Z,21.57
2018-09-04T09:37:54.215Z,30.63
2018-09-04T09:40:22.983Z,24.50
2018-09-04T09:42:51.772Z,22.93
2018-09-04T09:45:20.506Z,25.30
2018-09-04T09:47:50.435Z,24.63
2018-09-04T09:50:20.956Z,26.43
2018-09-04T09:52:50.527Z,30.33
2018-09-04T09:55:20.109Z,28.47
2018-09-04T09:57:49.197Z,35.77
2018-09-04T10:00:23.278Z,28.70
2018-09-04T10:02:57.751Z,25.40
2018-09-04T10:05:27.123Z,34.50
2018-09-04T10:07:56.302Z,43.03
2018-09-04T10:10:26.060Z,28.33
2018-09-04T10:12:54.986Z,35.17
2018-09-04T10:15:24.123Z,40.83
2018-09-04T10:17:53.376Z,45.40
2018-09-04T10:20:23.060Z,27.00
2018-09-04T10:22:52.287Z,27.87
2018-09-04T10:25:21.822Z,24.90
2018-09-04T10:27:50.856Z,26.37
2018-09-04T10:30:19.639Z,25.23
2018-09-04T10:32:53.188Z,30.80
2018-09-04T10:35:23.305Z,25.30
2018-09-04T10:37:52.507Z,23.97
2018-09-04T10:40:26.888Z,23.37
2018-09-04T10:42:56.033Z,26.93
2018-09-04T10:45:30.914Z,28.67
2018-09-04T10:47:59.726Z,28.30
2018-09-04T10:50:29.098Z,30.70
2018-09-04T10:52:58.565Z,27.20
2018-09-04T10:55:27.953Z,29.90
2018-09-04T10:57:57.441Z,32.63
2018-09-04T11:00:26.332Z,32.90
2018-09-04T11:02:56.095Z,34.70
2018-09-04T11:05:25.334Z,39.40
2018-09-04T11:07:54.894Z,38.73
2018-09-04T11:10:23.678Z,33.03
2018-09-04T11:12:53.150Z,27.90
2018-09-04T11:15:22.415Z,33.07
2018-09-04T11:17:51.659Z,28.17
2018-09-04T11:20:22.401Z,42.83
2018-09-04T11:22:51.922Z,28.70
2018-09-04T11:25:21.545Z,28.10
2018-09-04T11:27:50.795Z,27.43
2018-09-04T11:30:20.214Z,32.73
2018-09-04T11:32:49.451Z,32.73
2018-09-04T11:35:19.401Z,36.70
2018-09-04T11:37:48.472Z,44.57
2018-09-04T11:40:17.409Z,42.47
2018-09-04T11:42:47.153Z,39.13
2018-09-04T11:45:16.007Z,44.43
2018-09-04T11:47:44.979Z,38.73
2018-09-04T11:50:13.869Z,39.07
2018-09-04T11:52:43.567Z,42.30
2018-09-04T11:55:12.693Z,30.77
2018-09-04T11:57:42.137Z,40.27
2018-09-04T12:00:15.908Z,35.97
2018-09-04T12:02:45.822Z,39.93
2018-09-04T12:05:15.133Z,34.30
2018-09-04T12:07:44.172Z,46.00
2018-09-04T12:10:13.422Z,30.77
2018-09-04T12:12:42.564Z,37.40
2018-09-04T12:15:11.671Z,42.97
2018-09-04T12:17:40.863Z,43.87
2018-09-04T12:20:47.252Z,38.30
2018-09-04T12:23:16.415Z,49.33
2018-09-04T12:25:47.642Z,45.27
2018-09-04T12:28:16.599Z,43.10
2018-09-04T12:30:46.490Z,51.33
2018-09-04T12:33:15.862Z,48.17
2018-09-04T12:35:45.192Z,41.57
2018-09-04T12:38:16.517Z,51.53
2018-09-04T12:40:46.627Z,44.20
2018-09-04T12:43:16.101Z,46.27
2018-09-04T12:45:51.972Z,54.57
2018-09-04T12:48:25.246Z,35.30
2018-09-04T12:50:55.381Z,42.23
2018-09-04T12:53:25.006Z,38.60
2018-09-04T12:55:53.951Z,56.40
2018-09-04T12:58:22.589Z,61.37
2018-09-04T13:00:52.542Z,65.63
2018-09-04T13:03:22.699Z,44.50
2018-09-04T13:05:51.698Z,35.93
2018-09-04T13:08:21.811Z,39.67
2018-09-04T13:10:50.539Z,52.57
2018-09-04T13:13:19.472Z,35.53
2018-09-04T13:15:50.251Z,59.57
2018-09-04T13:18:19.275Z,37.57
2018-09-04T13:20:48.115Z,31.03
2018-09-04T13:23:16.965Z,35.87
2018-09-04T13:25:45.897Z,39.90
2018-09-04T13:28:15.492Z,52.90
2018-09-04T13:30:44.618Z,57.90
2018-09-04T13:33:13.725Z,33.50
2018-09-04T13:35:42.514Z,72.43
2018-09-04T13:38:11.711Z,63.53
2018-09-04T13:40:40.453Z,43.10
2018-09-04T13:43:09.590Z,61.20
2018-09-04T13:45:39.180Z,55.50
2018-09-04T13:48:08.754Z,38.47
2018-09-04T13:50:37.547Z,41.87
2018-09-04T13:53:06.275Z,53.77
2018-09-04T13:55:35.627Z,44.97
2018-09-04T13:58:05.148Z,68.43
2018-09-04T14:00:34.347Z,35.70
2018-09-04T14:03:03.519Z,33.03
2018-09-04T14:05:32.810Z,40.93
2018-09-04T14:08:01.711Z,37.53
2018-09-04T14:10:30.941Z,36.03
2018-09-04T14:12:59.820Z,31.97
2018-09-04T14:15:29.319Z,30.63
2018-09-04T14:17:58.050Z,53.47
2018-09-04T14:20:26.816Z,39.33
2018-09-04T14:22:55.645Z,33.23
2018-09-04T14:25:24.576Z,37.43
2018-09-04T14:27:53.726Z,30.60
2018-09-04T14:30:22.741Z,32.80
2018-09-04T14:32:51.987Z,35.20
2018-09-04T14:35:22.103Z,35.27
2018-09-04T14:37:51.086Z,31.80
2018-09-04T14:40:19.976Z,32.33
2018-09-04T14:42:49.008Z,30.60
2018-09-04T14:45:18.260Z,31.13
2018-09-04T14:47:47.173Z,32.47
2018-09-04T14:50:16.711Z,28.80
2018-09-04T14:52:45.455Z,25.20
2018-09-04T14:55:14.655Z,30.73
2018-09-04T14:57:43.815Z,25.43
2018-09-04T15:00:12.931Z,27.10
2018-09-04T15:02:41.825Z,31.33
2018-09-04T15:05:10.658Z,32.40
2018-09-04T15:07:39.819Z,28.27
2018-09-04T15:10:08.966Z,28.27
2018-09-04T15:12:37.899Z,28.60
2018-09-04T15:15:07.483Z,25.10
2018-09-04T15:17:36.225Z,25.63
2018-09-04T15:20:05.094Z,25.10
2018-09-04T15:22:34.211Z,23.67
2018-09-04T15:25:03.462Z,28.20
2018-09-04T15:27:32.194Z,22.93
2018-09-04T15:30:01.775Z,21.93
2018-09-04T15:32:30.535Z,25.33
2018-09-04T15:34:59.295Z,24.33
2018-09-04T15:37:28.105Z,24.03
2018-09-04T15:39:57.273Z,27.37
2018-09-04T15:42:26.262Z,23.63
2018-09-04T15:44:55.260Z,21.57
2018-09-04T15:47:24.427Z,32.50
2018-09-04T15:49:53.283Z,21.07
2018-09-04T15:52:22.072Z,26.93
2018-09-04T15:54:50.987Z,24.83
2018-09-04T15:57:19.869Z,28.43
2018-09-04T15:59:48.668Z,26.40
2018-09-04T16:02:17.409Z,28.93
2018-09-04T16:04:46.303Z,35.17
2018-09-04T16:07:15.266Z,27.67
2018-09-04T16:09:44.266Z,20.17
2018-09-04T16:12:13.537Z,22.37
2018-09-04T16:14:42.712Z,15.20
2018-09-04T16:17:12.245Z,15.33
2018-09-04T16:19:41.140Z,15.03
2018-09-04T16:22:09.877Z,13.33
2018-09-04T16:24:39.120Z,21.87
2018-09-04T16:27:08.069Z,14.03
2018-09-04T16:29:36.918Z,12.93
2018-09-04T16:32:06.034Z,20.97
2018-09-04T16:34:34.888Z,12.80
2018-09-04T16:37:04.202Z,20.20
2018-09-04T16:39:33.488Z,16.07
2018-09-04T16:42:02.345Z,11.20
2018-09-04T16:44:31.143Z,14.00
2018-09-04T16:47:00.092Z,20.93
2018-09-04T16:49:28.858Z,13.37
2018-09-04T16:51:59.413Z,12.60
2018-09-04T16:54:28.925Z,16.47
2018-09-04T16:56:57.932Z,21.77
2018-09-04T16:59:26.831Z,16.60
2018-09-04T17:01:55.691Z,13.30
2018-09-04T17:04:24.685Z,12.10
2018-09-04T17:06:53.449Z,15.60
2018-09-04T17:09:22.415Z,15.73
2018-09-04T17:11:51.593Z,13.37
2018-09-04T17:14:20.393Z,9.00
2018-09-04T17:16:49.272Z,11.67
2018-09-04T17:19:18.102Z,16.43
2018-09-04T17:21:46.968Z,13.93
2018-09-04T17:24:15.782Z,10.83
2018-09-04T17:26:44.492Z,10.27
2018-09-04T17:29:13.836Z,10.77
2018-09-04T17:31:42.609Z,13.10
2018-09-04T17:34:11.422Z,12.00
2018-09-04T17:36:40.269Z,11.20
2018-09-04T17:39:09.406Z,10.40
2018-09-04T17:41:38.195Z,14.20
2018-09-04T17:44:07.371Z,17.23
2018-09-04T17:46:36.115Z,10.40
2018-09-04T17:49:04.884Z,20.03
2018-09-04T17:51:33.935Z,11.10
2018-09-04T17:54:02.741Z,12.00
2018-09-04T17:56:31.541Z,24.60
2018-09-04T17:59:00.508Z,21.07
2018-09-04T18:01:29.312Z,24.20
2018-09-04T18:03:58.378Z,23.50
2018-09-04T18:06:27.158Z,22.10
2018-09-04T18:08:55.904Z,26.73
2018-09-04T18:11:25.020Z,24.60
2018-09-04T18:13:53.952Z,28.10
2018-09-04T18:16:22.745Z,23.17
2018-09-04T18:18:51.543Z,23.83
2018-09-04T18:21:20.766Z,26.73
2018-09-04T18:23:49.882Z,22.80
2018-09-04T18:26:18.810Z,23.13
2018-09-04T18:28:47.777Z,23.73
2018-09-04T18:31:16.742Z,21.20
2018-09-04T18:33:46.192Z,24.77
2018-09-04T18:36:15.100Z,24.13
2018-09-04T18:38:44.112Z,21.07
2018-09-04T18:41:13.563Z,24.87
2018-09-04T18:43:42.424Z,22.53
2018-09-04T18:46:11.606Z,14.23
2018-09-04T18:48:40.932Z,29.00
2018-09-04T18:51:09.885Z,27.47
2018-09-04T18:53:38.746Z,27.30
2018-09-04T18:56:07.710Z,31.20
2018-09-04T18:58:36.507Z,19.23
2018-09-04T19:01:05.709Z,23.80
2018-09-04T19:03:34.830Z,23.87
2018-09-04T19:06:04.336Z,23.27
2018-09-04T19:08:33.320Z,27.73
2018-09-04T19:11:02.535Z,30.10
2018-09-04T19:13:31.423Z,22.43
2018-09-04T19:16:00.299Z,28.63
2018-09-04T19:18:29.287Z,28.87
2018-09-04T19:20:58.724Z,22.00
2018-09-04T19:23:27.612Z,17.80
2018-09-04T19:25:56.879Z,24.37
2018-09-04T19:28:25.731Z,26.17
2018-09-04T19:30:54.944Z,25.60
2018-09-04T19:33:24.002Z,25.67
2018-09-04T19:35:53.036Z,27.93
2018-09-04T19:38:21.759Z,20.80
2018-09-04T19:40:51.291Z,24.77
2018-09-04T19:43:20.499Z,26.77
2018-09-04T19:45:49.720Z,31.27
2018-09-04T19:48:19.013Z,28.03
2018-09-04T19:50:48.172Z,32.33
2018-09-04T19:53:17.490Z,21.70
2018-09-04T19:55:46.977Z,21.87
2018-09-04T19:58:16.224Z,29.27
2018-09-04T20:00:45.138Z,18.07
2018-09-04T20:03:14.178Z,30.07
2018-09-04T20:05:43.128Z,32.33
2018-09-04T20:08:12.031Z,24.23
2018-09-04T20:10:40.936Z,25.70
2018-09-04T20:13:09.880Z,31.17
2018-09-04T20:15:38.859Z,32.23
2018-09-04T20:18:07.822Z,30.63
2018-09-04T20:20:36.983Z,32.00
2018-09-04T20:23:06.436Z,32.17
2018-09-04T20:25:36.145Z,26.37
2018-09-04T20:28:05.399Z,28.87
2018-09-04T20:30:34.935Z,26.77
2018-09-04T20:33:04.721Z,21.30
2018-09-04T20:35:33.612Z,31.23
2018-09-04T20:38:03.241Z,34.80
2018-09-04T20:40:32.713Z,26.77
2018-09-04T20:43:01.940Z,26.20
2018-09-04T20:45:31.447Z,20.57
2018-09-04T20:48:00.640Z,15.23
2018-09-04T20:50:29.536Z,16.83
2018-09-04T20:52:58.706Z,16.40
2018-09-04T20:55:28.336Z,31.73
